Time;durP1;ratioP1;P1;durP2;ratioP2;P2;SDS_P1;SDS_P2;PMS_P1;PMS_P2;Temp;Humidity;BMP_temperature;BMP_pressure;BME280_temperature;BME280_humidity;BME280_pressure;Samples;Min_cycle;Max_cycle;Signal;HPM_P1;HPM_P2
2023/10/21 11:52:29;;;;;;;1.40;1.30;;;22.30;47.90;;;;;;6238578;22;1262460;-24
2023/10/21 11:55:22;;;;;;;1.33;1.23;;;22.30;47.80;;;;;;6248082;22;20498;-24
2023/10/21 12:06:45;;;;;;;1.80;1.10;;;22.20;47.70;;;;;;6245607;23;20155;-24
2023/10/21 12:10:18;;;;;;;1.50;1.38;;;22.30;47.60;;;;;;6241380;23;20185;-23
2023/10/21 12:12:42;;;;;;;1.10;1.00;;;22.30;47.70;;;;;;6243838;23;20181;-24
2023/10/21 12:15:44;;;;;;;1.48;1.13;;;22.30;47.80;;;;;;6242727;23;20227;-24
2023/10/21 12:26:40;;;;;;;1.13;1.02;;;22.30;47.60;;;;;;6245366;23;20268;-24
2023/10/21 12:29:44;;;;;;;1.25;0.98;;;22.30;47.80;;;;;;6244668;23;20169;-23
2023/10/21 12:37:51;;;;;;;0.80;0.80;;;22.30;47.60;;;;;;6242650;23;20475;-24
2023/10/21 12:40:30;;;;;;;1.08;0.90;;;22.30;47.60;;;;;;6243054;23;20228;-24
2023/10/21 12:45:45;;;;;;;0.90;0.85;;;22.30;47.30;;;;;;6244751;23;20169;-24
2023/10/21 12:48:10;;;;;;;1.65;1.27;;;22.30;47.40;;;;;;6244174;23;20164;-24
2023/10/21 12:50:37;;;;;;;1.08;0.98;;;22.30;47.40;;;;;;6244682;23;20177;-23
2023/10/21 12:53:03;;;;;;;1.20;0.90;;;22.30;47.30;;;;;;6245285;22;20280;-23
2023/10/21 12:55:29;;;;;;;0.90;0.90;;;22.30;47.30;;;;;;6241811;23;20472;-23
2023/10/21 12:57:56;;;;;;;0.95;0.88;;;22.30;47.20;;;;;;6243157;23;20507;-23
2023/10/21 13:00:25;;;;;;;0.80;0.80;;;22.30;47.30;;;;;;6243518;23;20181;-28
2023/10/21 13:02:51;;;;;;;1.42;1.10;;;22.30;47.10;;;;;;6244054;22;20197;-28
2023/10/21 13:05:18;;;;;;;1.23;1.10;;;22.30;47.50;;;;;;6243978;23;20208;-27
2023/10/21 13:07:44;;;;;;;3.05;2.40;;;22.30;47.20;;;;;;6245162;23;20180;-27
2023/10/21 13:10:11;;;;;;;4.85;2.45;;;22.30;47.00;;;;;;6243487;23;20248;-27
2023/10/21 13:12:37;;;;;;;4.10;2.90;;;22.30;47.00;;;;;;6241875;22;20197;-27
2023/10/21 13:15:09;;;;;;;6.65;2.90;;;22.30;46.80;;;;;;6244144;23;20196;-27
2023/10/21 13:17:37;;;;;;;5.38;2.78;;;22.30;46.70;;;;;;6243203;23;20173;-28
2023/10/21 13:20:04;;;;;;;4.90;3.33;;;22.30;46.80;;;;;;6241004;23;20179;-28
2023/10/21 13:22:32;;;;;;;4.45;2.90;;;22.30;46.80;;;;;;6244774;22;20197;-28
2023/10/21 13:25:06;;;;;;;3.90;3.03;;;22.30;46.80;;;;;;6243715;23;20204;-28
2023/10/21 13:27:33;;;;;;;5.57;3.35;;;22.30;46.80;;;;;;6244260;23;20628;-27
2023/10/21 13:29:59;;;;;;;5.88;3.80;;;22.30;46.70;;;;;;6242679;23;20181;-27
2023/10/21 13:32:27;;;;;;;3.65;2.85;;;22.30;46.80;;;;;;6244531;22;20200;-28
2023/10/21 13:34:54;;;;;;;5.75;3.70;;;22.30;46.70;;;;;;6244294;23;20554;-27
2023/10/21 13:37:20;;;;;;;5.55;3.28;;;22.30;46.90;;;;;;6245102;23;20177;-28
2023/10/21 13:39:47;;;;;;;5.03;3.20;;;22.30;46.90;;;;;;6240001;23;20205;-28
2023/10/21 13:42:13;;;;;;;5.18;3.40;;;22.30;46.80;;;;;;6244243;22;20252;-28
2023/10/21 13:44:40;;;;;;;5.68;3.00;;;22.30;46.80;;;;;;6244645;23;20524;-28
2023/10/21 13:47:08;;;;;;;4.10;2.70;;;22.30;46.80;;;;;;6244590;23;20181;-28
2023/10/21 13:49:34;;;;;;;5.63;3.47;;;22.30;46.80;;;;;;6242818;23;20173;-27
2023/10/21 13:52:01;;;;;;;4.63;2.78;;;22.30;46.80;;;;;;6243532;22;20187;-27
2023/10/21 13:54:27;;;;;;;4.63;3.13;;;22.30;46.80;;;;;;6244194;23;20161;-28
2023/10/21 13:56:54;;;;;;;6.45;3.38;;;22.30;46.80;;;;;;6237437;23;20256;-26
2023/10/21 13:59:22;;;;;;;5.78;3.15;;;22.40;47.00;;;;;;6243348;23;20256;-27
2023/10/21 14:01:49;;;;;;;4.85;3.13;;;22.40;46.90;;;;;;6241430;23;20256;-27
2023/10/21 14:04:16;;;;;;;5.70;2.67;;;22.40;46.90;;;;;;6241850;22;20279;-27
2023/10/21 14:06:43;;;;;;;5.95;3.58;;;22.40;46.90;;;;;;6243306;23;20598;-27
2023/10/21 14:09:22;;;;;;;4.68;2.88;;;22.50;46.90;;;;;;6241191;23;20180;-27
2023/10/21 14:11:48;;;;;;;3.55;2.53;;;22.40;42.20;;;;;;6242681;23;20239;-27
2023/10/21 14:14:14;;;;;;;4.20;2.70;;;22.40;42.80;;;;;;6243451;23;20517;-27
2023/10/21 14:16:41;;;;;;;4.70;2.70;;;22.40;42.70;;;;;;6244186;23;20177;-26
2023/10/21 14:19:08;;;;;;;3.92;2.95;;;22.40;42.80;;;;;;6243063;23;20173;-26
2023/10/21 14:21:34;;;;;;;4.70;2.67;;;22.40;42.80;;;;;;6243658;23;20260;-26
2023/10/21 14:24:01;;;;;;;3.58;2.75;;;22.40;42.80;;;;;;6240898;22;20205;-27
2023/10/21 14:26:27;;;;;;;4.15;2.80;;;22.40;42.70;;;;;;6243233;23;20196;-27
2023/10/21 14:28:55;;;;;;;4.05;2.60;;;22.40;42.80;;;;;;6243563;23;20238;-26
2023/10/21 14:31:22;;;;;;;9.38;3.67;;;22.40;42.60;;;;;;6243806;23;20179;-27
2023/10/21 14:33:48;;;;;;;4.60;2.60;;;22.40;42.70;;;;;;6241640;22;20194;-27
2023/10/21 14:36:14;;;;;;;4.00;2.28;;;22.40;43.80;;;;;;6244544;23;20173;-28
2023/10/21 14:40:32;;;;;;;4.25;2.65;;;22.50;41.10;;;;;;5091410;27;20389;-42
2023/10/21 14:42:58;;;;;;;3.60;2.47;;;22.50;42.50;;;;;;5003022;28;20233;-40
2023/10/21 14:45:24;;;;;;;3.83;2.20;;;22.40;42.40;;;;;;5022969;28;20212;-41
2023/10/21 14:47:51;;;;;;;3.20;2.33;;;22.50;42.70;;;;;;5027729;28;20209;-41
2023/10/21 14:50:17;;;;;;;2.53;2.05;;;22.40;42.70;;;;;;5028853;28;20228;-50
2023/10/21 14:52:44;;;;;;;4.60;2.40;;;22.40;42.80;;;;;;5022680;28;20222;-49
2023/10/21 14:55:11;;;;;;;3.90;2.33;;;22.40;42.80;;;;;;5011336;28;20237;-39
2023/10/21 14:57:37;;;;;;;4.80;2.33;;;22.40;42.80;;;;;;5033373;28;20262;-46
2023/10/21 15:00:05;;;;;;;4.40;2.10;;;22.40;42.90;;;;;;5021025;28;20691;-44
2023/10/21 15:02:32;;;;;;;4.40;2.38;;;22.40;42.80;;;;;;5026064;28;20704;-46
2023/10/21 15:04:59;;;;;;;3.35;2.20;;;22.40;42.90;;;;;;5031752;28;20673;-36
2023/10/21 15:07:25;;;;;;;4.28;1.80;;;22.40;42.70;;;;;;5027818;28;20210;-37
2023/10/21 15:09:52;;;;;;;4.03;2.28;;;22.40;43.40;;;;;;5024862;28;20202;-36
2023/10/21 15:12:19;;;;;;;2.45;2.10;;;22.40;42.60;;;;;;5023484;28;20264;-57
2023/10/21 15:14:46;;;;;;;2.97;2.20;;;22.40;42.60;;;;;;5025599;28;20210;-58
2023/10/21 15:17:13;;;;;;;2.10;1.70;;;22.40;42.70;;;;;;5026503;28;20709;-51
2023/10/21 15:19:39;;;;;;;2.30;1.80;;;22.40;42.60;;;;;;5029256;28;20226;-50
2023/10/21 15:22:06;;;;;;;2.25;2.03;;;22.40;42.60;;;;;;5028901;28;20229;-59
2023/10/21 15:24:32;;;;;;;2.55;2.05;;;22.40;42.60;;;;;;5028193;28;20203;-58
2023/10/21 15:26:58;;;;;;;4.10;1.95;;;22.40;42.70;;;;;;5025788;28;20213;-42
2023/10/21 15:29:25;;;;;;;2.63;2.22;;;22.40;42.50;;;;;;5025148;28;20211;-44
2023/10/21 15:31:53;;;;;;;2.40;1.75;;;22.40;42.50;;;;;;5025995;28;20277;-44
2023/10/21 15:34:21;;;;;;;4.78;2.03;;;22.40;42.50;;;;;;5028256;28;20578;-41
2023/10/21 15:36:51;;;;;;;2.65;1.95;;;22.40;42.50;;;;;;5026223;28;20979;-40
2023/10/21 15:39:19;;;;;;;2.13;1.80;;;22.40;42.50;;;;;;5025017;28;20232;-47
2023/10/21 15:41:46;;;;;;;4.28;1.73;;;22.40;42.40;;;;;;5025551;28;20199;-60
2023/10/21 15:44:13;;;;;;;1.90;1.58;;;22.40;42.40;;;;;;5034296;28;20198;-51
2023/10/21 15:46:39;;;;;;;1.98;1.60;;;22.40;42.40;;;;;;5023363;28;20199;-53
2023/10/21 15:49:06;;;;;;;4.18;2.00;;;22.40;42.40;;;;;;5026420;28;20206;-46
2023/10/21 15:51:33;;;;;;;3.15;1.67;;;22.40;42.40;;;;;;5013270;28;20225;-51
2023/10/21 15:53:59;;;;;;;2.13;1.92;;;22.40;42.40;;;;;;5008662;28;20559;-49
2023/10/21 15:56:26;;;;;;;2.00;1.80;;;22.40;42.50;;;;;;5010653;28;20203;-50
2023/10/21 15:58:53;;;;;;;1.77;1.60;;;22.40;42.50;;;;;;5012197;28;20229;-52
2023/10/21 16:01:19;;;;;;;3.00;1.80;;;22.40;42.60;;;;;;5014872;28;20203;-56
2023/10/21 16:03:46;;;;;;;1.42;1.33;;;22.40;42.60;;;;;;5013312;28;20338;-50
2023/10/21 16:06:13;;;;;;;2.63;1.70;;;22.40;42.60;;;;;;5012863;28;20207;-50
2023/10/21 16:08:39;;;;;;;2.30;1.35;;;22.40;42.50;;;;;;5011696;28;20242;-57
2023/10/21 16:11:06;;;;;;;1.70;1.50;;;22.40;42.60;;;;;;5013277;28;20199;-50
2023/10/21 16:13:33;;;;;;;2.33;1.88;;;22.40;42.50;;;;;;5009418;28;20313;-45
2023/10/21 16:16:00;;;;;;;2.22;1.80;;;22.40;42.60;;;;;;5018668;28;20195;-45
2023/10/21 16:18:26;;;;;;;1.90;1.80;;;22.40;42.50;;;;;;5015384;28;20213;-44
2023/10/21 16:20:53;;;;;;;2.55;1.95;;;22.40;42.50;;;;;;5013776;28;20231;-49
2023/10/21 16:23:19;;;;;;;2.00;1.80;;;22.40;42.40;;;;;;5015378;28;20754;-46
2023/10/21 16:25:46;;;;;;;1.65;1.30;;;22.40;42.40;;;;;;5009641;28;20202;-48
2023/10/21 16:28:12;;;;;;;3.13;1.40;;;22.40;42.40;;;;;;5022939;28;20198;-42
2023/10/21 16:30:39;;;;;;;1.77;1.55;;;22.40;42.40;;;;;;5016607;28;20207;-47
2023/10/21 16:33:05;;;;;;;2.17;1.30;;;22.40;42.30;;;;;;5013540;28;20240;-49
2023/10/21 16:35:32;;;;;;;1.70;1.50;;;22.50;42.40;;;;;;5012240;28;20206;-48
2023/10/21 16:37:59;;;;;;;1.88;1.67;;;22.40;42.40;;;;;;5003795;28;20227;-55
2023/10/21 16:40:25;;;;;;;1.92;1.70;;;22.40;42.50;;;;;;4994800;28;20296;-52
2023/10/21 16:42:51;;;;;;;2.03;1.67;;;22.40;42.40;;;;;;4999886;28;20223;-51
2023/10/21 16:45:18;;;;;;;1.85;1.42;;;22.40;42.50;;;;;;5011883;28;20573;-52
2023/10/21 16:47:44;;;;;;;2.13;1.63;;;22.40;42.50;;;;;;5012518;28;20591;-51
2023/10/21 16:50:11;;;;;;;1.67;1.50;;;22.40;42.50;;;;;;5000815;28;20574;-53
2023/10/21 16:52:37;;;;;;;1.90;1.77;;;22.30;42.30;;;;;;5012048;28;20330;-52
2023/10/21 16:55:04;;;;;;;2.00;1.67;;;22.30;42.50;;;;;;5012593;28;20283;-55
2023/10/21 16:57:30;;;;;;;2.45;1.30;;;22.30;42.40;;;;;;5011725;28;20211;-51
2023/10/21 16:59:56;;;;;;;1.85;1.30;;;22.30;42.40;;;;;;5008625;28;20273;-50
2023/10/21 17:02:23;;;;;;;1.63;1.52;;;22.30;42.60;;;;;;5008067;28;20250;-51
2023/10/21 17:04:50;;;;;;;1.80;1.70;;;22.30;42.60;;;;;;5010956;28;20572;-51
2023/10/21 17:07:16;;;;;;;1.50;1.35;;;22.30;42.50;;;;;;5010107;28;20633;-52
2023/10/21 17:09:45;;;;;;;2.83;1.50;;;22.30;42.60;;;;;;5011098;28;20618;-50
2023/10/21 17:12:12;;;;;;;3.20;1.98;;;22.30;42.50;;;;;;5010915;28;20219;-54
2023/10/21 17:14:38;;;;;;;2.03;1.50;;;22.20;42.40;;;;;;5012533;28;20289;-52
2023/10/21 17:17:05;;;;;;;1.85;1.60;;;22.30;42.80;;;;;;5008229;28;20298;-60
2023/10/21 17:19:31;;;;;;;1.70;1.60;;;22.30;42.80;;;;;;5010134;28;20229;-49
2023/10/21 17:21:58;;;;;;;2.63;1.60;;;22.30;42.80;;;;;;5010317;28;20234;-52
2023/10/21 17:24:24;;;;;;;3.17;1.75;;;22.30;42.90;;;;;;5009710;28;20210;-53
2023/10/21 17:26:50;;;;;;;1.63;1.52;;;22.30;42.90;;;;;;5012495;28;20207;-62
2023/10/21 17:29:16;;;;;;;1.88;1.50;;;22.30;42.80;;;;;;5011884;28;20230;-53
2023/10/21 17:31:43;;;;;;;1.90;1.42;;;22.30;43.00;;;;;;5012290;28;20722;-52
2023/10/21 17:34:09;;;;;;;1.60;1.50;;;22.30;43.10;;;;;;5011592;28;20655;-56
2023/10/21 17:36:36;;;;;;;2.67;1.65;;;22.30;43.00;;;;;;5011946;28;20641;-53
2023/10/21 17:39:03;;;;;;;1.73;1.48;;;22.30;43.00;;;;;;5008904;28;20203;-52
2023/10/21 17:41:30;;;;;;;2.95;1.45;;;22.30;43.00;;;;;;5010611;28;20259;-54
2023/10/21 17:43:56;;;;;;;1.88;1.67;;;22.30;43.00;;;;;;5009937;28;20286;-52
2023/10/21 17:46:25;;;;;;;2.67;1.50;;;22.30;43.00;;;;;;5011121;28;20203;-53
2023/10/21 17:48:51;;;;;;;1.73;1.58;;;22.30;42.90;;;;;;5009212;28;20207;-55
2023/10/21 17:51:17;;;;;;;2.33;1.80;;;22.30;42.90;;;;;;5008244;28;20230;-52
2023/10/21 17:53:44;;;;;;;1.70;1.60;;;22.30;43.00;;;;;;5010595;28;20578;-52
2023/10/21 17:56:11;;;;;;;2.08;1.50;;;22.30;42.90;;;;;;5011577;28;20203;-50
2023/10/21 17:58:38;;;;;;;1.65;1.55;;;22.30;43.00;;;;;;5010867;28;20675;-52
2023/10/21 18:01:04;;;;;;;1.67;1.40;;;22.30;43.00;;;;;;5009902;28;20699;-61
2023/10/21 18:03:32;;;;;;;1.95;1.50;;;22.30;43.00;;;;;;5010316;28;20218;-50
2023/10/21 18:05:59;;;;;;;1.90;1.70;;;22.30;43.10;;;;;;5010753;28;20214;-57
2023/10/21 18:08:25;;;;;;;1.60;1.50;;;22.30;43.10;;;;;;5009739;28;20222;-57
2023/10/21 18:10:51;;;;;;;1.70;1.60;;;22.20;43.10;;;;;;5009974;28;20209;-54
2023/10/21 18:13:18;;;;;;;1.60;1.50;;;22.20;43.00;;;;;;5010341;28;20227;-52
2023/10/21 18:15:44;;;;;;;2.35;1.48;;;22.20;42.90;;;;;;5011135;28;20293;-54
2023/10/21 18:18:11;;;;;;;2.35;1.38;;;22.20;43.10;;;;;;5007449;28;20205;-55
2023/10/21 18:20:37;;;;;;;1.80;1.50;;;22.20;43.10;;;;;;5010355;28;20234;-60
2023/10/21 18:23:04;;;;;;;1.55;1.38;;;22.20;43.10;;;;;;5010978;28;20233;-49
2023/10/21 18:25:30;;;;;;;1.60;1.30;;;22.20;42.90;;;;;;5011210;28;20211;-51
2023/10/21 18:27:57;;;;;;;2.35;1.45;;;22.20;42.80;;;;;;5011379;28;20551;-50
2023/10/21 18:30:23;;;;;;;1.50;1.40;;;22.20;42.60;;;;;;5011441;28;20350;-53
2023/10/21 18:32:50;;;;;;;1.58;1.38;;;22.20;42.70;;;;;;5011175;28;20227;-53
2023/10/21 18:35:16;;;;;;;1.60;1.50;;;22.20;42.70;;;;;;5006970;28;20217;-52
2023/10/21 18:37:43;;;;;;;1.70;1.60;;;22.20;42.70;;;;;;5006400;28;20257;-53
2023/10/21 18:40:09;;;;;;;1.60;1.50;;;22.20;42.60;;;;;;5008438;28;20617;-53
2023/10/21 18:42:36;;;;;;;1.40;1.30;;;22.20;42.50;;;;;;5009033;28;20707;-53
2023/10/21 18:45:04;;;;;;;1.60;1.50;;;22.20;42.50;;;;;;5011155;28;20598;-54
2023/10/21 18:47:32;;;;;;;1.60;1.40;;;22.20;42.50;;;;;;5010914;28;20663;-52
2023/10/21 18:49:59;;;;;;;1.52;1.42;;;22.10;42.40;;;;;;5010278;28;20206;-57
2023/10/21 18:52:25;;;;;;;1.52;1.30;;;22.20;42.40;;;;;;5011631;28;20239;-50
2023/10/21 18:54:51;;;;;;;1.50;1.40;;;22.20;42.50;;;;;;5011605;28;20207;-53
2023/10/21 18:57:18;;;;;;;1.60;1.50;;;22.10;42.40;;;;;;5006227;28;20656;-53
2023/10/21 18:59:44;;;;;;;1.52;1.42;;;22.10;42.40;;;;;;5008475;28;20256;-50
2023/10/21 19:02:14;;;;;;;2.00;1.45;;;22.20;42.50;;;;;;5005256;28;20241;-57
2023/10/21 19:04:42;;;;;;;1.60;1.40;;;22.10;42.40;;;;;;5006531;28;20203;-51
2023/10/21 19:07:08;;;;;;;1.55;1.40;;;22.20;42.70;;;;;;5011325;28;20211;-52
2023/10/21 19:09:35;;;;;;;1.70;1.60;;;22.20;43.00;;;;;;5010571;28;20293;-55
2023/10/21 19:12:03;;;;;;;1.65;1.50;;;22.20;43.00;;;;;;5010103;28;20215;-52
2023/10/21 19:14:29;;;;;;;1.40;1.30;;;22.20;43.10;;;;;;5006118;28;20207;-53
2023/10/21 19:16:56;;;;;;;2.92;1.80;;;22.20;42.90;;;;;;5007936;28;20207;-54
2023/10/21 19:19:23;;;;;;;2.05;1.40;;;22.20;43.10;;;;;;5008148;28;20203;-53
2023/10/21 19:21:49;;;;;;;2.10;1.40;;;22.20;43.00;;;;;;5006417;28;20270;-51
2023/10/21 19:24:16;;;;;;;2.50;1.90;;;22.20;42.90;;;;;;5009178;28;20213;-60
2023/10/21 19:26:42;;;;;;;1.33;1.23;;;22.20;42.90;;;;;;5010663;28;20574;-54
2023/10/21 19:29:09;;;;;;;1.35;1.20;;;22.20;43.60;;;;;;5012821;28;20656;-53
2023/10/21 19:31:35;;;;;;;1.70;1.60;;;22.20;42.80;;;;;;5008201;28;20253;-52
2023/10/21 19:34:01;;;;;;;2.55;1.50;;;22.20;42.90;;;;;;5013272;28;20207;-53
2023/10/21 19:36:28;;;;;;;1.90;1.52;;;22.20;42.90;;;;;;5014626;28;20664;-53
2023/10/21 19:38:54;;;;;;;1.45;1.35;;;22.20;42.80;;;;;;5011223;28;20233;-55
2023/10/21 19:41:21;;;;;;;1.25;1.15;;;22.20;42.80;;;;;;5014467;28;20298;-55
2023/10/21 19:43:48;;;;;;;1.50;1.40;;;22.20;42.90;;;;;;5013390;28;20203;-50
2023/10/21 19:46:14;;;;;;;2.00;1.30;;;22.20;42.80;;;;;;5013899;28;20207;-53
2023/10/21 19:48:41;;;;;;;1.63;1.30;;;22.20;42.80;;;;;;5012189;28;20207;-56
2023/10/21 19:51:09;;;;;;;1.48;1.15;;;22.20;42.90;;;;;;5013626;28;20225;-53
2023/10/21 19:53:35;;;;;;;1.60;1.50;;;22.20;42.90;;;;;;5014408;28;20295;-53
2023/10/21 19:56:03;;;;;;;1.48;1.30;;;22.20;42.90;;;;;;5010887;28;20202;-57
2023/10/21 19:58:29;;;;;;;2.83;1.45;;;22.20;42.90;;;;;;5010471;28;20211;-57
2023/10/21 20:00:55;;;;;;;1.98;1.25;;;22.20;43.10;;;;;;5013023;28;20243;-54
2023/10/21 20:03:22;;;;;;;1.52;1.42;;;22.20;43.00;;;;;;5014332;28;20207;-52
2023/10/21 20:05:48;;;;;;;1.63;1.48;;;22.20;43.00;;;;;;5011102;28;20299;-56
2023/10/21 20:08:15;;;;;;;2.22;1.40;;;22.20;43.10;;;;;;5013210;28;20205;-57
2023/10/21 20:10:41;;;;;;;1.20;1.10;;;22.20;43.00;;;;;;5012454;28;20490;-49
2023/10/21 20:13:08;;;;;;;2.05;1.38;;;22.10;42.90;;;;;;5014230;28;20305;-53
2023/10/21 20:15:34;;;;;;;2.22;1.20;;;22.10;42.90;;;;;;5009371;28;20210;-61
2023/10/21 20:18:00;;;;;;;1.40;1.30;;;22.10;42.90;;;;;;5011336;28;20207;-63
2023/10/21 20:20:27;;;;;;;1.63;1.30;;;22.10;42.90;;;;;;5013159;28;20247;-51
2023/10/21 20:22:53;;;;;;;1.52;1.42;;;22.10;43.00;;;;;;5011726;28;20551;-52
2023/10/21 20:25:20;;;;;;;1.27;1.23;;;22.10;43.00;;;;;;5013687;28;20221;-53
2023/10/21 20:27:46;;;;;;;2.20;1.48;;;22.10;43.10;;;;;;5013364;28;20214;-50
2023/10/21 20:30:13;;;;;;;1.40;1.30;;;22.20;43.20;;;;;;5012850;28;20195;-52
2023/10/21 20:32:39;;;;;;;1.30;1.20;;;22.20;43.20;;;;;;5008324;28;20210;-52
2023/10/21 20:35:06;;;;;;;1.40;1.30;;;22.20;43.10;;;;;;5012559;28;20213;-53
2023/10/21 20:37:33;;;;;;;1.30;1.20;;;22.20;43.30;;;;;;5012846;28;20199;-53
2023/10/21 20:39:59;;;;;;;1.30;1.20;;;22.20;43.10;;;;;;5009274;28;20231;-52
2023/10/21 20:42:25;;;;;;;1.77;1.52;;;22.20;43.10;;;;;;5011530;28;20207;-53
2023/10/21 20:44:52;;;;;;;1.40;1.30;;;22.20;43.10;;;;;;5013521;28;20214;-55
2023/10/21 20:47:18;;;;;;;1.83;1.20;;;22.20;43.10;;;;;;5011738;28;20202;-54
2023/10/21 20:49:45;;;;;;;2.15;1.40;;;22.20;43.10;;;;;;5010063;28;20203;-54
2023/10/21 20:52:14;;;;;;;1.35;1.25;;;22.20;43.10;;;;;;5011188;28;20735;-52
2023/10/21 20:54:41;;;;;;;1.73;1.33;;;22.20;43.00;;;;;;5012910;28;20207;-53
2023/10/21 20:57:07;;;;;;;1.50;1.40;;;22.20;43.10;;;;;;5010427;28;20269;-55
2023/10/21 20:59:34;;;;;;;1.20;1.10;;;22.20;43.20;;;;;;5012382;28;20217;-53
2023/10/21 21:02:01;;;;;;;1.20;1.10;;;22.20;43.10;;;;;;5011579;28;20235;-55
2023/10/21 21:04:27;;;;;;;1.25;1.20;;;22.10;43.10;;;;;;5012942;28;20207;-54
2023/10/21 21:06:54;;;;;;;1.10;1.05;;;22.20;43.10;;;;;;5011545;28;20235;-55
2023/10/21 21:09:20;;;;;;;1.52;1.30;;;22.20;43.30;;;;;;5008999;28;20203;-55
2023/10/21 21:11:51;;;;;;;1.20;1.15;;;22.20;43.10;;;;;;5011999;28;20227;-50
2023/10/21 21:14:17;;;;;;;2.75;1.42;;;22.20;43.20;;;;;;5009381;28;20203;-52
2023/10/21 21:16:44;;;;;;;0.90;0.90;;;22.10;43.10;;;;;;5012214;28;20213;-52
2023/10/21 21:19:10;;;;;;;1.30;1.20;;;22.10;43.10;;;;;;5011291;28;20203;-52
2023/10/21 21:21:38;;;;;;;1.60;1.23;;;22.10;43.10;;;;;;5008804;28;20590;-51
2023/10/21 21:24:05;;;;;;;1.45;1.35;;;22.10;43.10;;;;;;5012124;28;20211;-54
2023/10/21 21:26:31;;;;;;;1.02;0.90;;;22.20;43.10;;;;;;5008773;28;20203;-56
2023/10/21 21:28:58;;;;;;;1.30;1.20;;;22.10;43.00;;;;;;5011455;28;20656;-50
2023/10/21 21:31:24;;;;;;;1.10;1.00;;;22.10;43.10;;;;;;5005655;28;20229;-55
2023/10/21 21:33:51;;;;;;;1.30;1.20;;;22.10;43.70;;;;;;5011440;28;20213;-53
2023/10/21 21:36:17;;;;;;;1.35;1.25;;;22.10;43.00;;;;;;5012694;28;20222;-49
2023/10/21 21:38:44;;;;;;;1.73;1.20;;;22.10;43.00;;;;;;5008826;28;20213;-52
2023/10/21 21:41:11;;;;;;;1.25;1.20;;;22.10;43.00;;;;;;5010124;28;20289;-53
2023/10/21 21:43:37;;;;;;;1.77;1.23;;;22.10;43.10;;;;;;5003754;28;20206;-59
2023/10/21 21:46:04;;;;;;;1.30;1.00;;;22.10;43.10;;;;;;5011906;28;20203;-50
2023/10/21 21:48:31;;;;;;;1.45;1.35;;;22.10;43.10;;;;;;5007516;28;20676;-63
2023/10/21 21:50:57;;;;;;;1.30;1.20;;;22.10;43.20;;;;;;5010415;28;20262;-58
2023/10/21 21:53:23;;;;;;;1.20;1.10;;;22.10;43.10;;;;;;5010162;28;20659;-58
2023/10/21 21:55:50;;;;;;;1.27;1.15;;;22.10;43.00;;;;;;5011740;28;20209;-52
2023/10/21 21:58:16;;;;;;;1.45;1.35;;;22.10;43.10;;;;;;5006520;28;20217;-56
2023/10/21 22:00:46;;;;;;;1.00;1.00;;;22.10;43.10;;;;;;5007023;28;20235;-53
2023/10/21 22:03:13;;;;;;;1.42;1.33;;;22.10;43.00;;;;;;5010340;28;20206;-52
2023/10/21 22:05:39;;;;;;;1.20;1.10;;;22.20;43.10;;;;;;5004770;28;20209;-48
2023/10/21 22:08:06;;;;;;;1.35;1.20;;;22.10;43.10;;;;;;5010923;28;20207;-51
2023/10/21 22:10:33;;;;;;;1.63;1.02;;;22.10;43.00;;;;;;5010369;28;20309;-53
2023/10/21 22:13:00;;;;;;;1.25;1.15;;;22.10;43.00;;;;;;5010005;28;20254;-52
2023/10/21 22:15:27;;;;;;;1.45;1.30;;;22.10;43.10;;;;;;5008535;28;20652;-50
2023/10/21 22:17:53;;;;;;;1.20;1.10;;;22.10;43.00;;;;;;5011126;28;20200;-48
2023/10/21 22:20:21;;;;;;;1.35;1.25;;;22.10;43.10;;;;;;5009578;28;20234;-52
2023/10/21 22:22:51;;;;;;;1.20;1.10;;;22.20;43.10;;;;;;5007022;28;20206;-51
2023/10/21 22:25:27;;;;;;;1.35;1.25;;;22.20;43.30;;;;;;5011616;28;20260;-53
2023/10/21 22:27:53;;;;;;;1.15;1.05;;;22.20;43.40;;;;;;5009146;28;20302;-53
2023/10/21 22:30:20;;;;;;;1.50;1.40;;;22.20;43.40;;;;;;5007931;28;20798;-52
2023/10/21 22:32:46;;;;;;;2.00;1.30;;;22.20;43.40;;;;;;5010620;28;20294;-52
2023/10/21 22:35:13;;;;;;;1.48;1.30;;;22.20;43.40;;;;;;5011467;28;20570;-56
2023/10/21 22:37:39;;;;;;;1.33;1.00;;;22.20;43.30;;;;;;5011729;28;20601;-52
2023/10/21 22:40:13;;;;;;;1.20;1.10;;;22.20;43.40;;;;;;5007012;28;20603;-51
2023/10/21 22:42:39;;;;;;;1.40;1.30;;;22.20;43.40;;;;;;5004993;28;20652;-51
2023/10/21 22:45:06;;;;;;;1.13;1.02;;;22.20;43.50;;;;;;5007312;28;20207;-57
2023/10/21 22:47:32;;;;;;;1.80;1.25;;;22.20;43.40;;;;;;5010283;28;20207;-50
2023/10/21 22:49:59;;;;;;;1.65;0.98;;;22.20;43.40;;;;;;5010676;28;20215;-54
2023/10/21 22:52:25;;;;;;;1.30;1.20;;;22.20;43.40;;;;;;5009706;28;20690;-59
2023/10/21 22:54:52;;;;;;;2.08;1.38;;;22.20;43.40;;;;;;5010032;28;20203;-55
2023/10/21 22:57:18;;;;;;;2.20;1.50;;;22.20;43.40;;;;;;5008049;28;20214;-50
2023/10/21 22:59:45;;;;;;;1.75;1.00;;;22.20;43.50;;;;;;5009684;28;20223;-52
2023/10/21 23:02:11;;;;;;;1.60;1.10;;;22.20;43.50;;;;;;5011647;28;20237;-58
2023/10/21 23:04:37;;;;;;;1.33;1.10;;;22.20;43.50;;;;;;5012750;28;20199;-50
2023/10/21 23:07:06;;;;;;;1.33;1.10;;;22.20;43.40;;;;;;5015342;28;20207;-50
2023/10/21 23:09:36;;;;;;;1.33;1.23;;;22.20;43.50;;;;;;5013021;28;20314;-53
2023/10/21 23:12:02;;;;;;;1.27;1.05;;;22.20;43.40;;;;;;5012812;28;20207;-54
2023/10/21 23:14:29;;;;;;;1.08;1.00;;;22.20;43.50;;;;;;5012463;28;20222;-59
2023/10/21 23:16:55;;;;;;;2.03;1.60;;;22.20;43.50;;;;;;5014455;28;20199;-57
2023/10/21 23:19:21;;;;;;;1.23;1.13;;;22.20;43.50;;;;;;5013643;28;20259;-53
2023/10/21 23:21:48;;;;;;;2.90;1.35;;;22.20;43.50;;;;;;5013605;28;20231;-54
2023/10/21 23:24:15;;;;;;;2.38;1.10;;;22.20;43.50;;;;;;5012017;28;20797;-50
2023/10/21 23:26:41;;;;;;;1.20;1.10;;;22.20;43.50;;;;;;5012762;28;20284;-54
2023/10/21 23:29:07;;;;;;;1.63;1.20;;;22.20;43.50;;;;;;5010969;28;20652;-60
2023/10/21 23:31:34;;;;;;;2.58;1.30;;;22.20;43.50;;;;;;5012652;28;20634;-61
2023/10/21 23:34:00;;;;;;;3.30;1.23;;;22.20;43.50;;;;;;5012917;28;20209;-52
2023/10/21 23:36:27;;;;;;;1.00;1.00;;;22.20;43.50;;;;;;5014214;28;20210;-54
2023/10/21 23:38:53;;;;;;;1.33;1.23;;;22.20;43.50;;;;;;5012072;28;20218;-55
2023/10/21 23:41:20;;;;;;;1.00;0.98;;;22.20;43.50;;;;;;5011450;28;20238;-57
2023/10/21 23:43:47;;;;;;;0.93;0.90;;;22.20;43.50;;;;;;5012159;28;20293;-51
2023/10/21 23:46:13;;;;;;;1.02;1.02;;;22.20;43.50;;;;;;5012343;28;20207;-57
2023/10/21 23:48:39;;;;;;;1.20;1.10;;;22.20;43.50;;;;;;5013709;28;20206;-53
2023/10/21 23:51:06;;;;;;;1.98;1.10;;;22.20;43.50;;;;;;5014465;28;20233;-52
2023/10/21 23:53:32;;;;;;;1.30;0.90;;;22.20;43.50;;;;;;5012871;28;20195;-54
2023/10/21 23:55:59;;;;;;;1.20;1.10;;;22.20;43.50;;;;;;5011618;28;20233;-57
2023/10/21 23:58:25;;;;;;;1.25;1.15;;;22.10;44.10;;;;;;5012061;28;20207;-53
